Weather at Mid Valley Airpark

Public forecast

Using degrees Fahrenheit for public forecast. Weather courtesy of forecast.io.

Closest aviation weather report (METAR) to Mid Valley Airpark

Report is more than 6 hours old.

Closest report is Belen Regional Airport, 8.2 nm (15.1 km) SSW. Retrieved 2020/10/26 20:35 UTC (5 days ago):

KBRG 262035Z AUTO 36009KT 10SM -SN SCT010 SCT014 OVC032 M02/M03 A2995 RMK AO2 P0001 T10191033

Closest aviation forecast (TAF) to Mid Valley Airpark

Closest forecast is Albuquerque International Sunport, 18.1 nm (33.6 km) NNE. Retrieved 2020/10/31 12:22 UTC (3 hours ago):

TAF KABQ 311120Z 3112/0112 VRB06KT P6SM SCT200 FM010100 04008KT P6SM SCT200 FM010700 08020G32KT P6SM SCT200 FM011100 06011KT P6SM SCT200